Time;durP1;ratioP1;P1;durP2;ratioP2;P2;SDS_P1;SDS_P2;PMS_P1;PMS_P2;Temp;Humidity;BMP_temperature;BMP_pressure;BME280_temperature;BME280_humidity;BME280_pressure;Samples;Min_cycle;Max_cycle;Signal;HPM_P1;HPM_P2
2021/12/25 00:02:23;;;;;;;12.33;8.77;;;;;;;;;;5101531;28;20208;-71
2021/12/25 00:04:51;;;;;;;14.70;9.30;;;;;;;;;;5101753;28;20209;-71
2021/12/25 00:07:19;;;;;;;13.87;9.13;;;;;;;;;;5101366;28;20237;-71
2021/12/25 00:09:47;;;;;;;15.37;10.17;;;;;;;;;;5101447;28;20231;-71
2021/12/25 00:12:15;;;;;;;15.13;9.53;;;;;;;;;;5101280;28;20226;-71
2021/12/25 00:14:43;;;;;;;15.87;10.10;;;;;;;;;;5101222;28;20220;-70
2021/12/25 00:17:11;;;;;;;14.30;9.30;;;;;;;;;;5100909;28;20216;-71
2021/12/25 00:19:40;;;;;;;16.10;9.73;;;;;;;;;;5101496;28;20232;-71
2021/12/25 00:22:08;;;;;;;18.40;10.33;;;;;;;;;;5101182;28;20206;-71
2021/12/25 00:24:42;;;;;;;19.27;11.17;;;;;;;;;;5101118;28;20571;-71
2021/12/25 00:27:32;;;;;;;16.57;9.73;;;;;;;;;;5100989;28;20216;-71
2021/12/25 00:30:12;;;;;;;17.13;10.40;;;;;;;;;;5100425;28;20599;-71
2021/12/25 00:32:53;;;;;;;15.30;9.67;;;;;;;;;;5100577;28;20692;-71
2021/12/25 00:35:23;;;;;;;14.63;9.63;;;;;;;;;;5101047;28;20213;-71
2021/12/25 00:37:51;;;;;;;22.80;11.70;;;;;;;;;;5100998;28;20216;-71
2021/12/25 00:40:19;;;;;;;20.60;10.93;;;;;;;;;;5100842;28;20239;-71
2021/12/25 00:42:47;;;;;;;18.53;10.30;;;;;;;;;;5100934;28;20202;-71
2021/12/25 00:45:15;;;;;;;19.43;9.87;;;;;;;;;;5100648;28;20202;-71
2021/12/25 00:47:43;;;;;;;13.00;8.60;;;;;;;;;;5100505;28;20201;-72
2021/12/25 00:50:11;;;;;;;15.43;9.37;;;;;;;;;;5109691;28;20203;-71
2021/12/25 00:52:41;;;;;;;16.33;9.63;;;;;;;;;;5104408;28;20700;-71
2021/12/25 00:55:09;;;;;;;15.67;10.30;;;;;;;;;;5099348;28;20265;-71
2021/12/25 00:57:39;;;;;;;18.77;10.87;;;;;;;;;;5100500;28;20209;-71
2021/12/25 01:00:10;;;;;;;19.43;9.93;;;;;;;;;;5100362;28;20220;-71
2021/12/25 01:02:40;;;;;;;15.07;9.37;;;;;;;;;;5100188;28;20202;-72
2021/12/25 01:05:09;;;;;;;17.23;9.43;;;;;;;;;;5100675;28;20209;-71
2021/12/25 01:07:37;;;;;;;16.20;8.70;;;;;;;;;;5099968;28;20251;-71
2021/12/25 01:10:09;;;;;;;14.83;9.50;;;;;;;;;;5100561;28;20296;-71
2021/12/25 01:12:50;;;;;;;20.47;10.23;;;;;;;;;;5100091;28;20236;-71
2021/12/25 01:15:22;;;;;;;15.77;9.13;;;;;;;;;;5099793;28;20209;-71
2021/12/25 01:18:15;;;;;;;15.37;10.40;;;;;;;;;;5100064;28;20884;-71
2021/12/25 01:29:25;;;;;;;18.80;11.30;;;;;;;;;;5105048;27;20551;-70
2021/12/25 01:32:13;;;;;;;16.67;11.33;;;;;;;;;;5094913;28;20679;-72
2021/12/25 01:37:35;;;;;;;17.53;10.83;;;;;;;;;;5094792;28;20653;-72
2021/12/25 01:40:19;;;;;;;15.10;9.43;;;;;;;;;;5094981;28;20225;-72
2021/12/25 01:48:20;;;;;;;14.87;9.10;;;;;;;;;;5082113;28;20229;-72
2021/12/25 01:50:48;;;;;;;15.07;8.77;;;;;;;;;;5094834;28;20201;-71
2021/12/25 01:53:16;;;;;;;13.13;8.33;;;;;;;;;;5094802;28;20205;-71
2021/12/25 01:55:44;;;;;;;10.97;7.37;;;;;;;;;;5094604;28;20584;-72
2021/12/25 01:58:13;;;;;;;12.80;8.57;;;;;;;;;;5094297;28;20703;-71
2021/12/25 02:00:43;;;;;;;13.97;9.10;;;;;;;;;;5093978;28;20760;-72
2021/12/25 02:03:12;;;;;;;13.33;7.97;;;;;;;;;;5094911;28;20212;-72
2021/12/25 02:05:40;;;;;;;9.43;7.40;;;;;;;;;;5094772;28;20210;-71
2021/12/25 02:08:21;;;;;;;12.23;7.63;;;;;;;;;;5094337;28;20299;-71
2021/12/25 02:10:49;;;;;;;11.27;7.43;;;;;;;;;;5094553;28;20206;-70
2021/12/25 02:13:17;;;;;;;14.37;8.27;;;;;;;;;;5094400;28;20210;-70
2021/12/25 02:15:50;;;;;;;12.10;7.63;;;;;;;;;;5094013;28;20209;-70
2021/12/25 02:18:24;;;;;;;13.50;7.07;;;;;;;;;;5094149;28;20225;-70
2021/12/25 02:21:00;;;;;;;10.63;7.20;;;;;;;;;;5094424;28;20216;-70
2021/12/25 02:23:29;;;;;;;11.50;7.10;;;;;;;;;;5094240;28;20209;-69
2021/12/25 02:25:57;;;;;;;10.93;7.27;;;;;;;;;;5093941;28;20205;-69
2021/12/25 02:28:26;;;;;;;13.37;7.90;;;;;;;;;;5093409;28;20234;-70
2021/12/25 02:30:55;;;;;;;12.73;7.60;;;;;;;;;;5093797;28;20265;-69
2021/12/25 02:33:24;;;;;;;302.17;143.57;;;;;;;;;;5093849;28;20292;-65
2021/12/25 02:35:54;;;;;;;42.03;22.57;;;;;;;;;;5093802;28;20576;-65
2021/12/25 02:38:22;;;;;;;17.07;10.13;;;;;;;;;;5092682;28;20316;-65
2021/12/25 02:40:50;;;;;;;11.60;7.83;;;;;;;;;;5080040;28;20680;-65
2021/12/25 02:43:19;;;;;;;10.37;6.83;;;;;;;;;;5080123;28;20241;-68
2021/12/25 02:45:47;;;;;;;13.70;7.50;;;;;;;;;;5080117;28;20244;-66
2021/12/25 02:48:17;;;;;;;11.80;6.63;;;;;;;;;;5079036;28;20716;-69
2021/12/25 02:50:46;;;;;;;10.77;7.60;;;;;;;;;;5076122;28;20202;-70
2021/12/25 02:53:15;;;;;;;10.43;7.07;;;;;;;;;;5069237;28;20198;-70
2021/12/25 02:55:44;;;;;;;11.00;6.60;;;;;;;;;;5061966;28;20199;-69
2021/12/25 02:58:12;;;;;;;9.17;6.60;;;;;;;;;;5071730;28;20215;-69
2021/12/25 03:00:42;;;;;;;12.40;7.40;;;;;;;;;;5072416;28;20211;-70
2021/12/25 03:03:11;;;;;;;10.00;6.70;;;;;;;;;;5073451;28;20262;-69
2021/12/25 03:05:39;;;;;;;10.10;6.43;;;;;;;;;;5073811;28;20546;-69
2021/12/25 03:08:07;;;;;;;9.53;6.37;;;;;;;;;;5073174;28;20240;-70
2021/12/25 03:10:37;;;;;;;8.87;6.53;;;;;;;;;;5066496;28;20198;-70
2021/12/25 03:13:18;;;;;;;9.77;7.37;;;;;;;;;;5068625;28;20221;-69
2021/12/25 03:15:47;;;;;;;9.67;6.97;;;;;;;;;;5074548;28;20576;-70
2021/12/25 03:18:16;;;;;;;11.37;6.97;;;;;;;;;;5070932;28;20218;-69
2021/12/25 03:20:46;;;;;;;10.03;6.50;;;;;;;;;;5065232;28;20202;-69
2021/12/25 03:23:15;;;;;;;7.80;6.53;;;;;;;;;;5075666;28;20550;-69
2021/12/25 03:25:45;;;;;;;11.27;7.10;;;;;;;;;;5066410;28;20198;-69
2021/12/25 03:28:14;;;;;;;10.33;6.53;;;;;;;;;;5069122;28;20239;-69
2021/12/25 03:30:43;;;;;;;10.73;6.73;;;;;;;;;;5068333;28;20202;-69
2021/12/25 03:33:13;;;;;;;12.30;6.57;;;;;;;;;;5079232;28;20605;-69
2021/12/25 03:35:41;;;;;;;9.53;6.17;;;;;;;;;;5079562;28;20209;-69
2021/12/25 03:38:10;;;;;;;8.40;5.83;;;;;;;;;;5079279;28;20230;-70
2021/12/25 03:40:39;;;;;;;10.30;6.47;;;;;;;;;;5079251;28;20290;-69
2021/12/25 03:43:08;;;;;;;9.37;6.33;;;;;;;;;;5079098;28;20297;-69
2021/12/25 03:45:36;;;;;;;11.73;6.60;;;;;;;;;;5078593;28;20584;-69
2021/12/25 03:48:10;;;;;;;12.07;6.30;;;;;;;;;;5079060;28;20226;-69
2021/12/25 03:53:37;;;;;;;10.90;6.83;;;;;;;;;;5067204;28;20206;-69
2021/12/25 03:58:52;;;;;;;8.37;6.07;;;;;;;;;;5078567;28;20228;-69
2021/12/25 04:01:29;;;;;;;8.97;6.00;;;;;;;;;;5078790;28;20209;-70
2021/12/25 04:04:07;;;;;;;9.70;6.20;;;;;;;;;;5078998;28;20236;-69
2021/12/25 04:06:43;;;;;;;9.93;5.90;;;;;;;;;;5078913;28;20289;-69
2021/12/25 04:09:21;;;;;;;8.80;5.87;;;;;;;;;;5078363;28;20234;-69
2021/12/25 04:11:49;;;;;;;15.23;5.83;;;;;;;;;;5078737;28;20206;-69
2021/12/25 04:14:19;;;;;;;10.47;6.40;;;;;;;;;;5078368;28;20210;-70
2021/12/25 04:16:47;;;;;;;8.90;6.13;;;;;;;;;;5078447;28;20206;-69
2021/12/25 04:19:15;;;;;;;11.13;6.80;;;;;;;;;;5078306;28;20728;-69
2021/12/25 04:21:51;;;;;;;8.63;6.23;;;;;;;;;;5078345;28;20561;-69
2021/12/25 04:24:19;;;;;;;8.13;6.00;;;;;;;;;;5078583;28;20210;-69
2021/12/25 04:26:48;;;;;;;9.00;6.57;;;;;;;;;;5078124;28;20212;-69
2021/12/25 04:29:35;;;;;;;7.93;6.17;;;;;;;;;;5077661;28;20222;-69
2021/12/25 05:02:50;;;;;;;9.13;6.00;;;;;;;;;;5077204;28;20206;-70
2021/12/25 05:05:21;;;;;;;7.93;5.90;;;;;;;;;;5077904;28;20206;-70
2021/12/25 05:07:49;;;;;;;9.80;5.97;;;;;;;;;;5077972;28;20216;-70
2021/12/25 05:10:17;;;;;;;8.43;5.97;;;;;;;;;;5077685;28;20289;-70
2021/12/25 05:12:45;;;;;;;13.17;6.40;;;;;;;;;;5077845;28;20202;-69
2021/12/25 05:15:13;;;;;;;8.37;5.80;;;;;;;;;;5077385;28;20633;-69
2021/12/25 05:17:41;;;;;;;6.67;5.83;;;;;;;;;;5077720;28;20658;-69
2021/12/25 05:20:09;;;;;;;6.83;5.90;;;;;;;;;;5077661;28;20209;-69
2021/12/25 05:22:38;;;;;;;8.93;6.30;;;;;;;;;;5077770;28;20213;-69
2021/12/25 05:25:06;;;;;;;11.67;6.23;;;;;;;;;;5077513;28;20552;-69
2021/12/25 05:27:35;;;;;;;17.27;6.40;;;;;;;;;;5077424;28;20244;-69
2021/12/25 05:30:03;;;;;;;11.23;5.87;;;;;;;;;;5077144;28;20226;-69
2021/12/25 05:32:31;;;;;;;10.10;5.90;;;;;;;;;;5077220;28;20209;-70
2021/12/25 05:34:59;;;;;;;9.03;5.50;;;;;;;;;;5077592;28;20211;-69
2021/12/25 05:37:28;;;;;;;7.77;6.30;;;;;;;;;;5077753;28;20210;-69
2021/12/25 05:39:57;;;;;;;9.43;6.33;;;;;;;;;;5077390;28;20221;-69
2021/12/25 05:42:25;;;;;;;11.03;6.73;;;;;;;;;;5077454;28;20212;-69
2021/12/25 05:44:53;;;;;;;9.77;6.60;;;;;;;;;;5077083;28;20212;-69
2021/12/25 05:47:21;;;;;;;7.13;6.00;;;;;;;;;;5077073;28;20210;-69
2021/12/25 05:49:49;;;;;;;8.93;6.00;;;;;;;;;;5077394;28;20233;-69
2021/12/25 05:52:17;;;;;;;7.77;5.40;;;;;;;;;;5077485;28;20210;-69
2021/12/25 05:54:45;;;;;;;7.13;5.80;;;;;;;;;;5077254;28;20213;-69
2021/12/25 05:57:14;;;;;;;8.90;6.37;;;;;;;;;;5077368;28;20213;-69
2021/12/25 05:59:42;;;;;;;10.37;5.70;;;;;;;;;;5076964;28;20226;-69
2021/12/25 06:02:12;;;;;;;9.43;5.77;;;;;;;;;;5077086;28;20206;-69
2021/12/25 06:04:40;;;;;;;9.97;6.23;;;;;;;;;;5077001;28;20229;-69
2021/12/25 06:07:08;;;;;;;7.73;6.10;;;;;;;;;;5077015;28;20669;-69
2021/12/25 06:09:37;;;;;;;9.37;6.40;;;;;;;;;;5076927;28;20230;-69
2021/12/25 06:12:07;;;;;;;8.97;5.73;;;;;;;;;;5077239;28;20236;-68
2021/12/25 06:14:36;;;;;;;7.50;5.37;;;;;;;;;;5078422;28;20206;-68
2021/12/25 06:17:04;;;;;;;7.43;5.77;;;;;;;;;;5080475;28;20674;-69
2021/12/25 06:19:32;;;;;;;7.20;5.40;;;;;;;;;;5075565;28;20216;-68
2021/12/25 06:22:00;;;;;;;8.80;5.83;;;;;;;;;;5067601;28;20684;-68
2021/12/25 06:24:29;;;;;;;11.63;5.73;;;;;;;;;;5070345;28;20203;-68
2021/12/25 06:26:57;;;;;;;8.40;6.00;;;;;;;;;;5072303;28;20202;-68
2021/12/25 06:29:25;;;;;;;12.07;6.47;;;;;;;;;;5072409;28;20218;-68
2021/12/25 06:31:55;;;;;;;11.00;6.27;;;;;;;;;;5073811;28;20202;-68
2021/12/25 06:34:23;;;;;;;8.67;5.57;;;;;;;;;;5068482;28;20276;-69
2021/12/25 06:53:29;;;;;;;10.43;7.43;;;;;;;;;;5053451;28;20592;-68
2021/12/25 06:55:57;;;;;;;9.90;6.87;;;;;;;;;;5040888;28;20577;-69
2021/12/25 06:58:25;;;;;;;9.33;6.33;;;;;;;;;;5012684;28;20211;-68
2021/12/25 07:00:53;;;;;;;10.47;6.63;;;;;;;;;;5012644;28;20215;-69
2021/12/25 07:03:21;;;;;;;8.97;6.27;;;;;;;;;;5015704;28;20298;-67
2021/12/25 07:05:49;;;;;;;9.23;6.97;;;;;;;;;;5017394;28;20949;-68
2021/12/25 07:08:17;;;;;;;7.87;6.53;;;;;;;;;;5019255;28;20203;-70
2021/12/25 07:10:46;;;;;;;8.87;5.87;;;;;;;;;;5025480;28;20242;-67
2021/12/25 07:13:17;;;;;;;9.40;6.40;;;;;;;;;;5022279;28;20659;-66
2021/12/25 07:15:46;;;;;;;9.47;6.43;;;;;;;;;;5031740;28;20214;-65
2021/12/25 07:18:14;;;;;;;10.07;6.90;;;;;;;;;;5024223;28;20261;-65
2021/12/25 07:20:42;;;;;;;7.37;6.13;;;;;;;;;;5039549;28;20659;-65
2021/12/25 07:23:10;;;;;;;10.13;6.73;;;;;;;;;;5029196;28;20224;-65
2021/12/25 07:25:38;;;;;;;9.60;6.47;;;;;;;;;;5027055;28;20211;-65
2021/12/25 07:28:07;;;;;;;12.50;6.43;;;;;;;;;;5023990;28;20210;-66
2021/12/25 07:30:35;;;;;;;12.27;6.77;;;;;;;;;;5026856;28;20208;-65
2021/12/25 07:33:03;;;;;;;7.17;5.90;;;;;;;;;;5018484;28;20198;-66
2021/12/25 07:35:31;;;;;;;12.50;7.63;;;;;;;;;;5016455;28;20208;-65
2021/12/25 07:37:59;;;;;;;10.23;6.60;;;;;;;;;;5024302;28;20207;-65
2021/12/25 07:40:27;;;;;;;13.10;6.47;;;;;;;;;;5027979;28;20227;-65
2021/12/25 07:42:55;;;;;;;9.17;6.63;;;;;;;;;;5024113;28;20292;-65
2021/12/25 07:45:25;;;;;;;11.97;7.10;;;;;;;;;;5027143;28;20582;-66
2021/12/25 07:47:59;;;;;;;11.23;6.67;;;;;;;;;;5022740;28;20306;-65
2021/12/25 07:50:27;;;;;;;9.83;6.77;;;;;;;;;;5025959;28;20662;-65
2021/12/25 07:52:55;;;;;;;13.40;7.03;;;;;;;;;;5021790;28;20695;-65
2021/12/25 07:55:23;;;;;;;10.20;6.23;;;;;;;;;;5013910;28;20206;-66
2021/12/25 07:57:51;;;;;;;7.80;5.90;;;;;;;;;;5010284;28;20232;-66
2021/12/25 08:00:19;;;;;;;8.97;6.70;;;;;;;;;;5014746;28;20216;-66
2021/12/25 08:02:48;;;;;;;8.60;6.03;;;;;;;;;;5013065;28;20224;-66
2021/12/25 08:05:17;;;;;;;10.00;7.30;;;;;;;;;;5015473;28;20216;-66
2021/12/25 08:07:45;;;;;;;11.37;6.63;;;;;;;;;;5010274;28;20231;-69
2021/12/25 08:10:13;;;;;;;8.23;6.43;;;;;;;;;;5015677;28;20202;-71
2021/12/25 08:12:42;;;;;;;7.67;5.77;;;;;;;;;;5016165;28;20232;-71
2021/12/25 08:15:11;;;;;;;10.40;6.20;;;;;;;;;;5013760;28;20204;-72
2021/12/25 08:17:39;;;;;;;8.73;5.80;;;;;;;;;;5011149;28;20380;-72
2021/12/25 08:20:09;;;;;;;10.97;6.70;;;;;;;;;;5012527;28;20224;-73
2021/12/25 08:22:38;;;;;;;10.57;7.17;;;;;;;;;;5009618;28;20225;-71
2021/12/25 08:25:06;;;;;;;10.47;7.17;;;;;;;;;;5016230;28;20282;-72
2021/12/25 08:27:34;;;;;;;11.70;7.03;;;;;;;;;;5012435;28;20224;-67
2021/12/25 08:30:02;;;;;;;9.17;5.77;;;;;;;;;;5006884;28;20205;-68
2021/12/25 08:32:30;;;;;;;7.67;6.40;;;;;;;;;;5001946;28;20572;-67
2021/12/25 08:34:58;;;;;;;12.17;7.20;;;;;;;;;;5011987;28;20214;-68
2021/12/25 08:37:27;;;;;;;10.33;7.13;;;;;;;;;;5009640;28;20224;-69
2021/12/25 08:39:55;;;;;;;8.10;6.17;;;;;;;;;;5012937;28;20288;-69
2021/12/25 08:42:23;;;;;;;9.20;6.63;;;;;;;;;;5010168;28;20242;-69
2021/12/25 08:45:05;;;;;;;8.30;6.23;;;;;;;;;;5014303;28;20209;-69
2021/12/25 08:47:34;;;;;;;9.13;6.97;;;;;;;;;;5010625;28;20228;-69
2021/12/25 08:50:03;;;;;;;9.93;7.57;;;;;;;;;;5010100;28;20287;-69
2021/12/25 08:52:33;;;;;;;9.30;6.33;;;;;;;;;;5004763;28;20229;-68
2021/12/25 08:55:01;;;;;;;10.73;7.47;;;;;;;;;;5007262;28;20210;-67
2021/12/25 08:57:29;;;;;;;8.90;6.83;;;;;;;;;;5008258;28;20238;-69
2021/12/25 08:59:57;;;;;;;10.60;6.33;;;;;;;;;;5015205;28;20204;-69
2021/12/25 09:02:27;;;;;;;9.00;7.33;;;;;;;;;;5009610;28;20220;-73
2021/12/25 09:04:55;;;;;;;10.87;7.57;;;;;;;;;;5003568;28;20291;-74
2021/12/25 09:07:23;;;;;;;8.93;7.40;;;;;;;;;;5001475;28;20254;-72
2021/12/25 09:09:52;;;;;;;10.60;6.43;;;;;;;;;;5007108;28;20263;-72
2021/12/25 09:12:22;;;;;;;9.73;6.37;;;;;;;;;;5007507;28;20205;-72
2021/12/25 09:14:50;;;;;;;9.33;6.97;;;;;;;;;;5010821;28;20204;-72
2021/12/25 09:17:18;;;;;;;9.20;6.93;;;;;;;;;;5010462;28;20221;-73
2021/12/25 09:19:46;;;;;;;9.97;7.10;;;;;;;;;;5010930;28;20648;-73
2021/12/25 09:22:14;;;;;;;9.03;7.00;;;;;;;;;;5009334;28;20228;-73
2021/12/25 09:24:42;;;;;;;9.90;7.37;;;;;;;;;;5010973;28;20571;-72
2021/12/25 09:27:11;;;;;;;10.27;7.60;;;;;;;;;;5012879;28;20229;-72
2021/12/25 09:29:39;;;;;;;11.17;6.97;;;;;;;;;;5004432;28;20201;-73
2021/12/25 09:32:07;;;;;;;7.43;6.40;;;;;;;;;;5006872;28;20201;-73
2021/12/25 09:34:35;;;;;;;10.03;7.23;;;;;;;;;;5002902;28;20197;-73
2021/12/25 09:37:03;;;;;;;10.00;6.90;;;;;;;;;;5009509;28;20310;-73
2021/12/25 09:39:31;;;;;;;9.00;7.53;;;;;;;;;;5008635;28;20206;-73
2021/12/25 09:41:59;;;;;;;10.10;7.33;;;;;;;;;;5005975;28;20202;-72
2021/12/25 09:44:29;;;;;;;9.10;7.33;;;;;;;;;;5009917;28;20223;-73
2021/12/25 09:46:57;;;;;;;8.90;6.73;;;;;;;;;;5003922;28;20224;-73
2021/12/25 09:49:25;;;;;;;10.17;6.57;;;;;;;;;;5004599;28;20203;-73
2021/12/25 09:51:53;;;;;;;11.13;7.93;;;;;;;;;;5002394;28;20239;-73
2021/12/25 09:54:20;;;;;;;9.67;6.70;;;;;;;;;;5008185;28;20197;-69
2021/12/25 09:56:51;;;;;;;8.60;7.10;;;;;;;;;;5012519;28;20285;-70
2021/12/25 09:59:19;;;;;;;9.90;7.63;;;;;;;;;;5010778;28;20200;-70
2021/12/25 10:01:49;;;;;;;8.60;7.47;;;;;;;;;;5010526;28;20209;-71
2021/12/25 10:04:30;;;;;;;11.13;7.57;;;;;;;;;;5011579;28;20236;-71
2021/12/25 10:06:59;;;;;;;8.10;6.60;;;;;;;;;;5021865;28;20231;-71
2021/12/25 10:09:27;;;;;;;10.17;7.63;;;;;;;;;;5010460;28;20200;-71
2021/12/25 10:11:57;;;;;;;10.47;8.23;;;;;;;;;;5013824;28;20235;-70
2021/12/25 10:14:25;;;;;;;10.93;7.80;;;;;;;;;;5009532;28;20192;-70
2021/12/25 10:16:55;;;;;;;10.10;7.67;;;;;;;;;;5009413;28;20220;-71
2021/12/25 10:19:27;;;;;;;11.83;8.37;;;;;;;;;;5015664;28;20211;-71
2021/12/25 10:22:05;;;;;;;9.80;8.43;;;;;;;;;;5007885;28;20211;-70
2021/12/25 10:24:41;;;;;;;12.63;8.40;;;;;;;;;;5012728;28;20234;-71
2021/12/25 10:27:09;;;;;;;15.70;8.87;;;;;;;;;;5004784;28;20778;-71
2021/12/25 10:29:37;;;;;;;13.47;8.90;;;;;;;;;;5008568;28;20675;-71
2021/12/25 10:32:17;;;;;;;13.43;9.23;;;;;;;;;;5008003;28;20209;-71
2021/12/25 10:34:45;;;;;;;11.50;8.80;;;;;;;;;;5012117;28;20666;-71
2021/12/25 10:37:14;;;;;;;10.70;8.27;;;;;;;;;;5006282;28;20235;-70
2021/12/25 10:39:42;;;;;;;13.23;9.27;;;;;;;;;;5011019;28;20258;-71
2021/12/25 10:42:13;;;;;;;15.33;9.40;;;;;;;;;;5006914;28;20681;-71
2021/12/25 10:44:42;;;;;;;13.10;8.93;;;;;;;;;;5010771;28;20238;-71
2021/12/25 10:47:11;;;;;;;13.87;9.33;;;;;;;;;;5005766;28;20263;-71
2021/12/25 10:49:42;;;;;;;13.97;9.70;;;;;;;;;;5009991;28;20639;-72
2021/12/25 10:52:12;;;;;;;11.53;8.90;;;;;;;;;;5007960;28;20319;-71
2021/12/25 10:54:41;;;;;;;17.07;9.63;;;;;;;;;;5010750;28;20197;-71
2021/12/25 10:57:09;;;;;;;12.20;9.87;;;;;;;;;;5007697;28;20235;-70
2021/12/25 10:59:44;;;;;;;12.50;9.50;;;;;;;;;;5008523;28;20211;-71
2021/12/25 11:02:26;;;;;;;13.67;10.43;;;;;;;;;;5002174;28;20204;-71
2021/12/25 11:04:56;;;;;;;12.90;9.43;;;;;;;;;;5007189;28;20613;-70
2021/12/25 11:07:24;;;;;;;13.60;10.37;;;;;;;;;;5008834;28;20223;-75
2021/12/25 11:10:08;;;;;;;12.83;9.93;;;;;;;;;;5014771;28;20214;-74
2021/12/25 11:12:37;;;;;;;13.33;9.77;;;;;;;;;;5008539;28;20211;-74
2021/12/25 11:15:13;;;;;;;15.00;9.87;;;;;;;;;;5011407;28;20207;-74
2021/12/25 11:17:42;;;;;;;15.13;10.47;;;;;;;;;;5008881;28;20230;-75
2021/12/25 11:20:18;;;;;;;15.27;10.80;;;;;;;;;;5012675;28;20219;-74
2021/12/25 11:22:47;;;;;;;16.37;10.90;;;;;;;;;;5008473;28;20215;-73
2021/12/25 11:25:16;;;;;;;16.10;10.53;;;;;;;;;;4996800;28;20243;-74
2021/12/25 11:27:44;;;;;;;16.73;10.30;;;;;;;;;;5004858;28;20725;-74
2021/12/25 11:30:12;;;;;;;14.87;9.47;;;;;;;;;;5012491;28;20659;-74
2021/12/25 11:32:40;;;;;;;14.90;9.37;;;;;;;;;;5010968;28;20211;-74
2021/12/25 11:35:10;;;;;;;16.40;9.00;;;;;;;;;;5014193;28;20201;-74
2021/12/25 11:37:40;;;;;;;15.47;10.23;;;;;;;;;;5009631;28;20236;-74
2021/12/25 11:40:09;;;;;;;12.37;9.60;;;;;;;;;;5013186;28;20200;-74
2021/12/25 11:42:40;;;;;;;14.30;10.70;;;;;;;;;;5010533;28;20204;-75
2021/12/25 11:45:12;;;;;;;17.90;11.43;;;;;;;;;;5010527;28;20223;-74
2021/12/25 11:47:42;;;;;;;13.80;9.93;;;;;;;;;;5010319;28;20256;-74
2021/12/25 11:50:12;;;;;;;13.67;9.33;;;;;;;;;;5011455;28;20207;-73
2021/12/25 11:52:46;;;;;;;15.83;10.23;;;;;;;;;;5010647;28;20378;-74
2021/12/25 11:55:32;;;;;;;17.87;10.23;;;;;;;;;;5012185;28;20207;-74
2021/12/25 11:58:15;;;;;;;14.03;9.47;;;;;;;;;;5014139;28;20206;-74
2021/12/25 12:00:47;;;;;;;15.07;10.07;;;;;;;;;;5014404;28;20212;-74
2021/12/25 12:03:46;;;;;;;16.37;11.80;;;;;;;;;;5009982;28;20234;-74
2021/12/25 12:06:15;;;;;;;14.10;9.83;;;;;;;;;;5031820;28;20227;-74
2021/12/25 12:09:09;;;;;;;14.27;9.83;;;;;;;;;;5011550;28;20204;-74
2021/12/25 12:11:40;;;;;;;16.77;11.27;;;;;;;;;;5010007;28;20208;-74
2021/12/25 12:14:16;;;;;;;19.07;10.83;;;;;;;;;;5006451;28;20223;-74
2021/12/25 12:16:45;;;;;;;17.00;10.77;;;;;;;;;;5007594;28;20601;-74
2021/12/25 12:19:31;;;;;;;17.43;12.07;;;;;;;;;;5008446;28;20209;-74
2021/12/25 12:22:00;;;;;;;16.30;10.43;;;;;;;;;;5012501;28;20208;-74
2021/12/25 12:24:45;;;;;;;19.90;11.43;;;;;;;;;;5008575;28;20226;-74
2021/12/25 12:27:30;;;;;;;16.83;11.60;;;;;;;;;;5009088;28;20224;-74
2021/12/25 12:29:58;;;;;;;16.20;10.67;;;;;;;;;;5005772;28;20548;-74
2021/12/25 12:32:37;;;;;;;14.83;10.40;;;;;;;;;;5006808;28;20205;-73
2021/12/25 12:35:05;;;;;;;20.27;11.10;;;;;;;;;;5008170;28;20201;-74
2021/12/25 12:37:34;;;;;;;15.13;10.30;;;;;;;;;;5005692;28;20705;-74
2021/12/25 12:40:26;;;;;;;12.37;9.40;;;;;;;;;;5007980;28;20461;-74
2021/12/25 12:42:58;;;;;;;12.20;8.40;;;;;;;;;;5007701;28;20682;-74
2021/12/25 12:45:27;;;;;;;10.93;7.77;;;;;;;;;;5014177;28;20694;-74
2021/12/25 12:48:09;;;;;;;12.03;8.47;;;;;;;;;;5007335;28;20914;-74
2021/12/25 12:50:38;;;;;;;12.30;8.57;;;;;;;;;;5005620;28;20209;-74
2021/12/25 12:53:07;;;;;;;11.03;7.87;;;;;;;;;;5010726;28;20236;-74
2021/12/25 12:55:37;;;;;;;11.67;7.90;;;;;;;;;;5014600;28;20670;-74
2021/12/25 12:58:14;;;;;;;10.80;8.90;;;;;;;;;;5009739;28;20671;-74
2021/12/25 13:00:44;;;;;;;10.47;8.43;;;;;;;;;;5007675;28;20215;-74
2021/12/25 13:03:12;;;;;;;10.13;8.10;;;;;;;;;;5010692;28;20212;-74
2021/12/25 13:05:41;;;;;;;10.07;8.03;;;;;;;;;;5007156;28;20730;-74
2021/12/25 13:08:16;;;;;;;13.63;8.27;;;;;;;;;;5008185;28;20208;-74
2021/12/25 13:10:50;;;;;;;11.07;7.80;;;;;;;;;;5007628;28;20204;-74
2021/12/25 13:13:21;;;;;;;12.43;8.40;;;;;;;;;;5006058;28;20203;-74
2021/12/25 13:15:50;;;;;;;12.17;9.03;;;;;;;;;;5013677;28;20309;-74
2021/12/25 13:18:27;;;;;;;10.73;8.47;;;;;;;;;;5009891;28;20578;-74
2021/12/25 13:20:55;;;;;;;12.07;8.07;;;;;;;;;;5013086;28;20208;-74
2021/12/25 13:23:24;;;;;;;12.37;8.73;;;;;;;;;;5006124;28;20220;-74
2021/12/25 13:25:56;;;;;;;12.63;9.00;;;;;;;;;;5013416;28;20232;-74
2021/12/25 13:28:27;;;;;;;15.97;8.53;;;;;;;;;;5006093;28;20548;-74
2021/12/25 13:30:56;;;;;;;12.87;9.07;;;;;;;;;;5010650;28;20205;-74
2021/12/25 13:33:25;;;;;;;11.30;8.33;;;;;;;;;;5005597;28;20209;-74
2021/12/25 13:36:05;;;;;;;11.80;8.43;;;;;;;;;;5012421;28;20224;-74
2021/12/25 13:38:46;;;;;;;14.73;9.13;;;;;;;;;;5009872;28;20200;-74
2021/12/25 13:41:14;;;;;;;11.40;8.90;;;;;;;;;;5011910;28;20675;-74
2021/12/25 13:43:44;;;;;;;14.53;7.57;;;;;;;;;;5009409;28;20204;-74
2021/12/25 13:46:11;;;;;;;11.30;9.10;;;;;;;;;;5011836;28;20227;-74
2021/12/25 13:48:40;;;;;;;13.67;9.27;;;;;;;;;;5009246;28;20621;-74
2021/12/25 13:51:08;;;;;;;13.20;9.30;;;;;;;;;;5011192;28;20208;-74
2021/12/25 13:53:39;;;;;;;14.23;8.93;;;;;;;;;;5006461;28;20570;-74
2021/12/25 13:56:08;;;;;;;15.47;8.97;;;;;;;;;;5011399;28;20222;-74
2021/12/25 13:58:36;;;;;;;11.67;8.97;;;;;;;;;;5008553;28;20211;-74
2021/12/25 14:01:06;;;;;;;12.17;8.70;;;;;;;;;;5010720;28;20291;-74
2021/12/25 14:03:34;;;;;;;11.07;8.60;;;;;;;;;;5007010;28;20681;-74
2021/12/25 14:06:02;;;;;;;11.27;8.73;;;;;;;;;;5014024;28;20239;-74
2021/12/25 14:08:30;;;;;;;9.50;8.17;;;;;;;;;;5012205;28;20208;-74
2021/12/25 14:11:01;;;;;;;10.07;8.47;;;;;;;;;;5006354;28;20291;-74
2021/12/25 14:13:30;;;;;;;14.33;8.87;;;;;;;;;;5010051;28;20231;-74
2021/12/25 14:15:59;;;;;;;12.20;9.07;;;;;;;;;;5007937;28;20231;-74
2021/12/25 14:18:32;;;;;;;11.93;8.53;;;;;;;;;;5007011;28;20687;-74
2021/12/25 14:21:13;;;;;;;14.57;8.93;;;;;;;;;;5008465;28;20215;-74
2021/12/25 14:23:42;;;;;;;11.50;9.13;;;;;;;;;;5006731;28;20212;-74
2021/12/25 14:26:10;;;;;;;12.83;8.87;;;;;;;;;;5004606;28;20697;-74
2021/12/25 14:28:38;;;;;;;13.57;8.50;;;;;;;;;;5009529;28;20216;-74
2021/12/25 14:31:07;;;;;;;14.03;8.43;;;;;;;;;;5005264;28;20209;-74
2021/12/25 14:33:38;;;;;;;13.97;9.00;;;;;;;;;;5006009;28;20204;-74
2021/12/25 14:36:08;;;;;;;11.90;9.70;;;;;;;;;;5014926;28;20231;-74
2021/12/25 14:38:37;;;;;;;12.97;8.37;;;;;;;;;;5004683;28;20214;-74
2021/12/25 14:41:05;;;;;;;14.47;9.33;;;;;;;;;;5010507;28;20216;-74
2021/12/25 14:43:34;;;;;;;17.33;8.80;;;;;;;;;;5008072;28;20211;-74
2021/12/25 14:46:03;;;;;;;17.00;8.87;;;;;;;;;;5012683;28;20224;-74
2021/12/25 14:48:32;;;;;;;12.67;8.87;;;;;;;;;;5004433;28;20235;-74
2021/12/25 14:51:04;;;;;;;14.00;9.50;;;;;;;;;;5008207;28;20205;-73
2021/12/25 14:53:32;;;;;;;12.73;8.93;;;;;;;;;;5008655;28;20209;-75
2021/12/25 14:56:01;;;;;;;12.93;9.10;;;;;;;;;;5005791;28;20257;-74
2021/12/25 14:58:31;;;;;;;11.50;8.50;;;;;;;;;;5003620;28;20204;-74
2021/12/25 15:01:03;;;;;;;10.70;8.10;;;;;;;;;;4998768;28;20204;-74
2021/12/25 15:03:32;;;;;;;11.90;8.37;;;;;;;;;;5013071;28;20295;-74
2021/12/25 15:06:00;;;;;;;8.27;7.33;;;;;;;;;;5017092;28;20242;-74
2021/12/25 15:08:31;;;;;;;9.57;7.93;;;;;;;;;;5011586;28;20214;-75
2021/12/25 15:11:10;;;;;;;11.70;8.40;;;;;;;;;;5002008;28;20209;-74
2021/12/25 15:13:39;;;;;;;13.13;8.20;;;;;;;;;;5013176;28;20553;-74
2021/12/25 15:16:07;;;;;;;9.53;7.23;;;;;;;;;;5016584;28;20220;-74
2021/12/25 15:18:37;;;;;;;9.43;6.90;;;;;;;;;;5011873;28;20695;-74
2021/12/25 15:21:09;;;;;;;12.27;8.30;;;;;;;;;;5013135;28;20595;-74
2021/12/25 15:23:39;;;;;;;12.57;8.40;;;;;;;;;;5008122;28;20651;-74
2021/12/25 15:26:09;;;;;;;8.73;6.87;;;;;;;;;;5001658;28;20713;-74
2021/12/25 15:28:38;;;;;;;9.10;6.20;;;;;;;;;;5010336;28;20551;-74
2021/12/25 15:31:18;;;;;;;8.43;6.23;;;;;;;;;;5015723;28;20677;-74
2021/12/25 15:33:48;;;;;;;10.13;7.30;;;;;;;;;;5012379;28;20208;-74
2021/12/25 15:36:16;;;;;;;7.00;6.23;;;;;;;;;;5012577;28;20231;-74
2021/12/25 15:38:46;;;;;;;8.07;6.00;;;;;;;;;;5015595;28;20232;-74
2021/12/25 15:41:15;;;;;;;9.80;6.40;;;;;;;;;;5015369;28;20677;-74
2021/12/25 15:43:44;;;;;;;6.07;5.40;;;;;;;;;;5011067;28;20269;-74
2021/12/25 15:46:12;;;;;;;8.77;7.17;;;;;;;;;;5013156;28;20239;-74
2021/12/25 15:48:41;;;;;;;9.17;6.53;;;;;;;;;;5015136;28;20295;-74
2021/12/25 15:51:10;;;;;;;7.40;5.87;;;;;;;;;;5015702;28;20216;-74
2021/12/25 15:53:38;;;;;;;12.20;7.00;;;;;;;;;;5015597;28;20205;-74
2021/12/25 15:56:07;;;;;;;8.20;5.90;;;;;;;;;;5012823;28;20228;-74
2021/12/25 15:58:35;;;;;;;11.27;6.17;;;;;;;;;;5005843;28;20212;-74
2021/12/25 16:01:03;;;;;;;8.93;6.20;;;;;;;;;;5008847;28;20208;-74
2021/12/25 16:03:33;;;;;;;9.20;6.47;;;;;;;;;;5013601;28;20589;-74